Главная страница
METAR-TAF:

METAR-TAF

Аэропорты :

Yaroslavl, Россия

Туношна

широта: 57-33-38N, долгота: 040-09-27E, высота над уровнем моря: 87 м

Текущие метеонаблюдения

Эта сводка был подготовлена 31 минут назад, в 21:00 UTC
Штиль
Температура 1°C
Влажность 93%
Давление 1019 hPa
Видимость 10 км и более
Сплошная облачность на высоте 2400 фута

METAR: UUDL 202100Z 00000MPS 9999 OVC024 01/00 Q1019 R23/010060 NOSIG RMK QFE756

Время: 00:31 (21:31 UTC)

Прогноз

Эта сводка был подготовлена 1 час и 31 минут назад, в 20:00 UTC
Прогноз действительный с 20-го 21 UTC до 21-го 21 UTC
Ветер 6 Узел от западно-северо-западный
Видимость: 5000 м
Отдельные облака на высоте 1100 фута
Рассеянная облачность на высоте 2000 фута, Кучево-дождевые.
небольшие ливневые снегопады, дождь

TAF: UUDL 202000Z 2021/2121 30003MPS 5000 -SHSNRA SCT011 BKN020CB

Метеонаблюдения и прогнозы для более 4000 аэропортов (сводки METAR и TAF).

Имеющиеся станции представлены на карте желтыми и красными точками.

Чтобы увидеть название станции, наведите на нее мышь.

Затем щелкните, чтобы увидеть метеонаблюдения и метеопрогнозы.

Управление картой: чтобы увеличить масштаб, щелкните зеленые кнопки с черным крестиком; чтобы уменьшить масштаб, щелкните зеленую кнопку с тире; для просмотра соседних карт щелкайте зеленые стрелки.


METAR-TAF: